Terminal Aerodrome Forecast
Issued by NWS Sterling, VA

Current Version | Previous Version | Text Only | Print | Product List | Glossary Off
Versions: 1 2 3 4 5 6 7 8 9 10 11 12 13 14 15 16 17 18 19 20 21 22 23 24 25

000
FTUS41 KLWX 020842 AAA
TAFIAD
TAF AMD
KIAD 020842Z 0209/0312 25006KT 1/4SM FG OVC002
     FM021100 29004KT 1SM BR BKN006 OVC050
     FM021200 29004KT P6SM SCT006 OVC045
     FM021300 31009KT P6SM BKN045
     FM021800 31012G25KT P6SM SCT250
     FM030000 31008KT P6SM SCT200
     FM030600 VRB04KT P6SM BKN200=

USA.gov is the U.S. government's official web portal to all federal, state and local government web resources and services.